Time;durP1;ratioP1;P1;durP2;ratioP2;P2;SDS_P1;SDS_P2;PMS_P1;PMS_P2;Temp;Humidity;BMP_temperature;BMP_pressure;BME280_temperature;BME280_humidity;BME280_pressure;Samples;Min_cycle;Max_cycle;Signal;HPM_P1;HPM_P2
2021/01/06 00:01:26;;;;;;;22.17;13.35;;;4.40;99.90;;;;;;4973393;28;20234;-76
2021/01/06 00:03:52;;;;;;;18.90;12.15;;;4.40;99.90;;;;;;4991327;28;20191;-76
2021/01/06 00:06:25;;;;;;;18.20;11.60;;;4.30;99.90;;;;;;4989817;28;20249;-76
2021/01/06 00:08:51;;;;;;;20.33;11.63;;;4.40;99.90;;;;;;4956348;28;20411;-76
2021/01/06 00:11:18;;;;;;;21.75;12.77;;;4.40;99.90;;;;;;4989091;28;20205;-77
2021/01/06 00:13:47;;;;;;;19.02;12.18;;;4.40;99.90;;;;;;4972729;28;20192;-76
2021/01/06 00:16:13;;;;;;;21.98;12.45;;;4.60;99.90;;;;;;5001980;28;20192;-76
2021/01/06 00:18:40;;;;;;;18.63;12.05;;;4.40;99.90;;;;;;4975257;28;20214;-76
2021/01/06 00:21:06;;;;;;;16.38;11.15;;;4.40;99.90;;;;;;4990160;28;20250;-76
2021/01/06 00:23:32;;;;;;;17.55;11.30;;;4.40;99.90;;;;;;4975851;28;20203;-76
2021/01/06 00:26:00;;;;;;;17.50;11.25;;;4.50;99.90;;;;;;4971570;28;20281;-76
2021/01/06 00:28:26;;;;;;;16.20;11.63;;;4.60;99.90;;;;;;4983171;28;20539;-76
2021/01/06 00:30:57;;;;;;;18.17;11.17;;;4.40;99.90;;;;;;4983873;28;20199;-76
2021/01/06 00:33:27;;;;;;;16.38;10.32;;;4.50;99.90;;;;;;5004433;28;20773;-76
2021/01/06 00:35:57;;;;;;;18.08;11.20;;;4.40;99.90;;;;;;4980515;28;20188;-76
2021/01/06 00:38:28;;;;;;;15.18;9.70;;;4.50;99.90;;;;;;4975771;23;20227;-77
2021/01/06 00:40:54;;;;;;;18.90;13.10;;;4.50;99.90;;;;;;4994835;28;20202;-75
2021/01/06 00:43:20;;;;;;;18.40;10.60;;;4.50;99.90;;;;;;4972114;28;20190;-76
2021/01/06 00:45:46;;;;;;;16.63;10.52;;;4.50;99.90;;;;;;4970825;28;20195;-75
2021/01/06 00:48:14;;;;;;;19.48;11.15;;;4.40;99.90;;;;;;4971985;28;20211;-75
2021/01/06 00:50:42;;;;;;;17.38;11.05;;;4.50;99.90;;;;;;4954744;28;20214;-76
2021/01/06 00:53:28;;;;;;;18.40;11.40;;;4.40;99.90;;;;;;4955907;28;20168;-76
2021/01/06 00:56:02;;;;;;;15.05;10.20;;;4.40;99.90;;;;;;4952633;29;20203;-76
2021/01/06 00:58:32;;;;;;;14.57;9.85;;;4.40;99.90;;;;;;4974531;28;20290;-76
2021/01/06 01:00:58;;;;;;;16.67;10.00;;;4.50;99.90;;;;;;4955973;28;20215;-76
2021/01/06 01:03:31;;;;;;;15.13;10.15;;;4.40;99.90;;;;;;4956653;28;20645;-76
2021/01/06 01:06:00;;;;;;;15.57;9.25;;;4.40;99.90;;;;;;4957967;28;20661;-76
2021/01/06 01:08:26;;;;;;;15.75;9.95;;;4.40;99.90;;;;;;4975238;28;20195;-76
2021/01/06 01:10:54;;;;;;;14.90;10.70;;;4.50;99.90;;;;;;4975174;28;20183;-76
2021/01/06 01:13:23;;;;;;;16.65;9.88;;;4.30;99.90;;;;;;4975288;28;20419;-76
2021/01/06 01:15:52;;;;;;;14.75;10.70;;;4.40;99.90;;;;;;4959392;28;20176;-75
2021/01/06 01:18:22;;;;;;;14.07;9.63;;;4.40;99.90;;;;;;4958620;28;20708;-76
2021/01/06 01:20:51;;;;;;;16.08;10.45;;;4.40;99.90;;;;;;4985974;28;20241;-76
2021/01/06 01:23:19;;;;;;;16.05;8.90;;;4.50;99.90;;;;;;5002622;28;20183;-75
2021/01/06 01:25:47;;;;;;;14.85;10.68;;;4.50;99.90;;;;;;4976406;28;20538;-76
2021/01/06 01:28:16;;;;;;;12.02;9.00;;;4.60;99.90;;;;;;4958967;28;20203;-75
2021/01/06 01:30:42;;;;;;;18.15;9.82;;;4.50;99.90;;;;;;4975724;28;20258;-76
2021/01/06 01:33:09;;;;;;;14.30;9.68;;;4.50;99.90;;;;;;4974686;28;20190;-76
2021/01/06 01:35:38;;;;;;;14.30;8.98;;;4.50;99.90;;;;;;4975541;28;20195;-76
2021/01/06 01:38:05;;;;;;;15.27;10.57;;;4.50;99.90;;;;;;4958249;28;20627;-76
2021/01/06 01:40:34;;;;;;;16.63;10.15;;;4.40;99.90;;;;;;4974196;28;20184;-76
2021/01/06 01:43:07;;;;;;;16.85;10.20;;;4.40;99.90;;;;;;4955685;28;20206;-76
2021/01/06 01:46:00;;;;;;;16.55;10.57;;;4.40;99.90;;;;;;4958594;28;20711;-76
2021/01/06 01:48:28;;;;;;;16.60;10.80;;;4.50;99.90;;;;;;4958371;28;20254;-75
2021/01/06 01:50:58;;;;;;;17.15;10.27;;;4.70;99.90;;;;;;4990584;28;20189;-76
2021/01/06 01:53:34;;;;;;;19.33;11.88;;;4.40;99.90;;;;;;4974175;28;20203;-76
2021/01/06 01:56:02;;;;;;;17.55;11.70;;;4.50;99.90;;;;;;4956312;28;20263;-76
2021/01/06 01:58:32;;;;;;;17.60;10.43;;;4.40;99.90;;;;;;4954934;29;20554;-76
2021/01/06 02:01:00;;;;;;;14.88;9.65;;;4.40;99.90;;;;;;4956756;28;20198;-76
2021/01/06 02:03:49;;;;;;;17.88;10.00;;;4.50;99.90;;;;;;4973944;28;20187;-76
2021/01/06 02:06:22;;;;;;;15.88;10.95;;;4.50;99.90;;;;;;4954784;29;20188;-76
2021/01/06 02:09:05;;;;;;;17.58;11.45;;;4.50;99.90;;;;;;4970723;28;20701;-76
2021/01/06 02:11:39;;;;;;;17.23;10.40;;;4.50;99.90;;;;;;4940195;28;20242;-76
2021/01/06 02:14:18;;;;;;;16.88;10.40;;;4.50;99.90;;;;;;4975340;28;20178;-76
2021/01/06 02:17:07;;;;;;;18.05;10.98;;;4.50;99.90;;;;;;4956731;28;20242;-76
2021/01/06 02:19:38;;;;;;;18.27;11.68;;;4.50;99.90;;;;;;4971426;28;20207;-76
2021/01/06 02:22:11;;;;;;;18.42;11.45;;;4.40;99.90;;;;;;4973679;28;20298;-76
2021/01/06 02:24:37;;;;;;;17.38;12.23;;;4.40;99.90;;;;;;4975045;28;20179;-75
2021/01/06 02:27:05;;;;;;;14.13;9.35;;;4.40;99.90;;;;;;4973435;28;20226;-76
2021/01/06 02:29:32;;;;;;;14.82;9.52;;;4.50;99.90;;;;;;4973924;28;20187;-76
2021/01/06 02:31:59;;;;;;;17.58;11.00;;;4.50;99.90;;;;;;4956897;28;20187;-75
2021/01/06 02:34:26;;;;;;;17.67;10.63;;;4.60;99.90;;;;;;4973641;28;20195;-76
2021/01/06 02:36:53;;;;;;;13.93;9.57;;;4.40;99.90;;;;;;4957048;28;20219;-76
2021/01/06 02:39:19;;;;;;;15.50;9.40;;;4.50;99.90;;;;;;4973815;28;20168;-75
2021/01/06 02:41:47;;;;;;;15.43;10.70;;;4.40;99.90;;;;;;4974717;28;20294;-76
2021/01/06 02:44:14;;;;;;;15.52;11.50;;;4.50;99.90;;;;;;4957709;28;20241;-76
2021/01/06 02:46:41;;;;;;;13.90;9.80;;;4.60;99.90;;;;;;4957208;28;20202;-76
2021/01/06 02:49:08;;;;;;;15.07;9.65;;;4.60;99.90;;;;;;4973421;28;20633;-76
2021/01/06 02:51:39;;;;;;;14.60;10.68;;;4.60;99.90;;;;;;4975701;28;20195;-76
2021/01/06 02:54:10;;;;;;;15.48;10.50;;;4.50;99.90;;;;;;4974358;28;20194;-76
2021/01/06 02:56:38;;;;;;;13.98;9.45;;;4.70;99.90;;;;;;4982457;23;20240;-71
2021/01/06 02:59:05;;;;;;;15.73;10.60;;;4.60;99.90;;;;;;4954944;28;20266;-71
2021/01/06 03:01:38;;;;;;;13.85;9.13;;;4.60;99.90;;;;;;4953520;28;20222;-71
2021/01/06 03:04:07;;;;;;;13.75;9.32;;;4.70;99.90;;;;;;4957594;28;20620;-71
2021/01/06 03:06:44;;;;;;;14.40;9.07;;;4.40;99.90;;;;;;4972774;28;20191;-71
2021/01/06 03:09:38;;;;;;;14.05;9.45;;;4.50;99.90;;;;;;4971932;28;20181;-71
2021/01/06 03:12:25;;;;;;;13.73;8.43;;;4.60;99.90;;;;;;4973335;28;20199;-71
2021/01/06 03:14:54;;;;;;;15.85;9.60;;;4.60;99.90;;;;;;4973346;28;20182;-71
2021/01/06 03:17:20;;;;;;;11.32;8.70;;;4.80;99.90;;;;;;4973852;28;20278;-71
2021/01/06 03:19:51;;;;;;;15.35;8.90;;;4.70;99.90;;;;;;4952625;28;20200;-71
2021/01/06 03:22:23;;;;;;;12.45;8.68;;;4.80;99.90;;;;;;4937488;29;20763;-71
2021/01/06 03:25:11;;;;;;;12.02;7.97;;;4.60;99.90;;;;;;4955743;28;20179;-71
2021/01/06 03:27:42;;;;;;;11.13;8.73;;;4.50;99.90;;;;;;4972826;28;20573;-71
2021/01/06 03:30:15;;;;;;;10.45;7.65;;;4.50;99.90;;;;;;4972480;28;20175;-71
2021/01/06 03:32:49;;;;;;;15.07;9.52;;;4.60;99.90;;;;;;4955789;28;20576;-71
2021/01/06 03:35:41;;;;;;;11.00;8.15;;;4.60;99.90;;;;;;4956268;28;20233;-71
2021/01/06 03:38:16;;;;;;;12.95;9.25;;;4.50;99.90;;;;;;4971719;28;20219;-71
2021/01/06 03:40:45;;;;;;;13.82;8.50;;;4.50;99.90;;;;;;4956006;28;20179;-71
2021/01/06 03:43:12;;;;;;;13.25;8.40;;;4.50;99.90;;;;;;4972723;28;20175;-71
2021/01/06 03:45:42;;;;;;;10.32;8.30;;;4.60;99.90;;;;;;4972056;28;20182;-71
2021/01/06 03:48:17;;;;;;;12.15;8.30;;;4.60;99.90;;;;;;4971513;28;20203;-71
2021/01/06 03:50:45;;;;;;;14.65;9.00;;;4.70;99.90;;;;;;4956177;28;20162;-71
2021/01/06 03:53:36;;;;;;;10.90;8.88;;;4.80;99.90;;;;;;4970240;28;20772;-71
2021/01/06 03:56:13;;;;;;;10.45;7.80;;;4.70;99.90;;;;;;4955282;28;20231;-71
2021/01/06 03:58:51;;;;;;;11.55;8.10;;;4.60;99.90;;;;;;4972970;28;20671;-71
2021/01/06 04:01:50;;;;;;;10.63;8.00;;;4.60;99.90;;;;;;4971876;28;20383;-71
2021/01/06 04:04:25;;;;;;;12.80;9.32;;;4.60;99.90;;;;;;4953884;28;20191;-71
2021/01/06 04:06:54;;;;;;;11.48;8.40;;;4.50;99.90;;;;;;4964978;28;20254;-71
2021/01/06 04:09:37;;;;;;;11.57;8.23;;;4.60;99.90;;;;;;4971801;28;20221;-71
2021/01/06 04:12:13;;;;;;;11.50;8.07;;;4.80;99.90;;;;;;4971734;28;20638;-72
2021/01/06 04:14:40;;;;;;;14.93;7.97;;;4.70;99.90;;;;;;4971445;28;20252;-71
2021/01/06 04:17:29;;;;;;;13.18;8.15;;;4.80;99.90;;;;;;4955370;28;20254;-71
2021/01/06 04:20:26;;;;;;;11.05;8.20;;;4.70;99.90;;;;;;4971359;28;20179;-71
2021/01/06 04:22:54;;;;;;;14.00;9.43;;;4.70;99.90;;;;;;4971378;28;20203;-71
2021/01/06 04:25:25;;;;;;;11.63;8.55;;;4.60;99.90;;;;;;4971528;28;20189;-71
2021/01/06 04:28:09;;;;;;;13.85;9.68;;;4.60;99.90;;;;;;4952395;29;20208;-71
2021/01/06 04:30:59;;;;;;;11.63;7.70;;;4.60;99.90;;;;;;4960654;28;20179;-71
2021/01/06 04:33:30;;;;;;;14.57;8.38;;;4.60;99.90;;;;;;4971383;28;20194;-71
2021/01/06 04:35:59;;;;;;;11.50;8.40;;;4.60;99.90;;;;;;4972356;28;20195;-71
2021/01/06 04:38:36;;;;;;;10.43;7.60;;;4.70;99.90;;;;;;4972778;28;20680;-71
2021/01/06 04:41:20;;;;;;;12.07;8.38;;;4.70;99.90;;;;;;4974715;28;20189;-71
2021/01/06 04:44:11;;;;;;;11.65;8.93;;;4.60;99.90;;;;;;4976674;28;20179;-71
2021/01/06 04:47:14;;;;;;;13.32;9.00;;;4.60;99.90;;;;;;4974895;28;20199;-71
2021/01/06 04:49:54;;;;;;;12.07;8.82;;;4.40;99.90;;;;;;4974816;28;20223;-71
2021/01/06 04:52:38;;;;;;;13.10;10.05;;;4.30;99.90;;;;;;4975455;28;20599;-71
2021/01/06 04:55:16;;;;;;;12.80;8.23;;;4.40;99.90;;;;;;4974947;28;20769;-71
2021/01/06 04:57:53;;;;;;;14.65;10.80;;;4.30;99.90;;;;;;4974558;28;20250;-71
2021/01/06 05:00:31;;;;;;;12.85;9.00;;;4.40;99.90;;;;;;4959447;28;20625;-71
2021/01/06 05:03:18;;;;;;;12.68;8.45;;;4.30;99.90;;;;;;4974423;28;20735;-71
2021/01/06 05:06:17;;;;;;;17.98;11.18;;;4.30;99.90;;;;;;4974362;28;20203;-71
2021/01/06 05:08:47;;;;;;;15.43;9.68;;;4.50;99.90;;;;;;4974798;28;20179;-71
2021/01/06 05:11:32;;;;;;;15.52;10.55;;;4.40;99.90;;;;;;4958537;28;20671;-71
2021/01/06 05:14:07;;;;;;;19.63;11.02;;;4.40;99.90;;;;;;4975494;28;20195;-71
2021/01/06 05:16:39;;;;;;;17.08;11.63;;;4.40;99.90;;;;;;4974551;28;20205;-71
2021/01/06 05:19:21;;;;;;;16.25;11.65;;;4.40;99.90;;;;;;4974175;28;20198;-71
2021/01/06 05:21:49;;;;;;;16.17;11.32;;;4.40;99.90;;;;;;4974563;28;20664;-71
2021/01/06 05:24:22;;;;;;;18.63;12.10;;;4.50;99.90;;;;;;4974638;28;20174;-71
2021/01/06 05:26:55;;;;;;;20.35;12.45;;;4.50;99.90;;;;;;4975445;28;20257;-71
2021/01/06 05:29:29;;;;;;;17.02;11.40;;;4.50;99.90;;;;;;4975142;28;20191;-71
2021/01/06 05:31:55;;;;;;;17.23;10.98;;;4.50;99.90;;;;;;4974427;28;20608;-71
2021/01/06 05:34:24;;;;;;;17.67;11.20;;;4.70;99.90;;;;;;4975403;28;20176;-71
2021/01/06 05:36:51;;;;;;;18.73;12.10;;;4.50;99.90;;;;;;4975375;28;20719;-71
2021/01/06 05:39:28;;;;;;;18.05;11.55;;;4.50;99.90;;;;;;4974009;28;20214;-71
2021/01/06 05:42:10;;;;;;;17.83;12.55;;;4.50;99.90;;;;;;4956224;28;20359;-71
2021/01/06 05:44:37;;;;;;;17.92;12.13;;;4.50;99.90;;;;;;4957028;28;20709;-71
2021/01/06 05:47:13;;;;;;;16.57;11.70;;;4.60;99.90;;;;;;4975393;28;20196;-71
2021/01/06 05:49:39;;;;;;;17.90;11.68;;;4.50;99.90;;;;;;4973988;28;20441;-71
2021/01/06 05:52:10;;;;;;;17.50;12.20;;;4.70;99.90;;;;;;4963945;28;20196;-71
2021/01/06 05:54:45;;;;;;;21.65;13.77;;;4.60;99.90;;;;;;4981428;28;20924;-71
2021/01/06 05:57:33;;;;;;;17.73;11.90;;;4.60;99.90;;;;;;4973701;28;20472;-71
2021/01/06 06:00:14;;;;;;;20.13;12.55;;;4.60;99.90;;;;;;4973930;28;20302;-71
2021/01/06 06:03:01;;;;;;;18.52;12.30;;;4.70;99.90;;;;;;4974525;28;20294;-71
2021/01/06 06:05:58;;;;;;;18.40;12.57;;;4.60;99.90;;;;;;4973621;28;20214;-71
2021/01/06 06:08:53;;;;;;;17.92;11.32;;;4.60;99.90;;;;;;4974671;28;20211;-71
2021/01/06 06:11:38;;;;;;;16.42;11.73;;;4.60;99.90;;;;;;4957308;28;20198;-71
2021/01/06 06:14:26;;;;;;;17.77;11.57;;;4.70;99.90;;;;;;4973702;28;20634;-71
2021/01/06 06:17:19;;;;;;;15.57;11.27;;;4.50;99.90;;;;;;4941929;28;20695;-71
2021/01/06 06:20:20;;;;;;;16.67;11.45;;;4.50;99.90;;;;;;4974454;28;20223;-71
2021/01/06 06:23:03;;;;;;;14.68;10.95;;;4.50;99.90;;;;;;4973101;28;20223;-71
2021/01/06 06:25:35;;;;;;;17.10;11.52;;;4.70;99.90;;;;;;4974343;28;20603;-71
2021/01/06 06:28:21;;;;;;;19.15;12.30;;;4.50;99.90;;;;;;4956897;28;20202;-71
2021/01/06 06:30:59;;;;;;;16.23;11.13;;;4.50;99.90;;;;;;4957106;28;20194;-71
2021/01/06 06:33:33;;;;;;;19.48;11.65;;;4.60;99.90;;;;;;4956909;28;20194;-71
2021/01/06 06:36:03;;;;;;;14.75;10.80;;;4.50;99.90;;;;;;4974268;28;20172;-71
2021/01/06 06:38:35;;;;;;;17.83;11.88;;;4.50;99.90;;;;;;4973256;28;20565;-71
2021/01/06 06:41:09;;;;;;;20.33;12.40;;;4.50;99.90;;;;;;4974712;28;20194;-71
2021/01/06 06:43:40;;;;;;;16.90;11.30;;;4.60;99.90;;;;;;4973959;28;20179;-71
2021/01/06 06:46:40;;;;;;;16.05;12.05;;;4.50;99.90;;;;;;4974219;28;20171;-71
2021/01/06 06:49:43;;;;;;;17.65;12.70;;;4.50;99.90;;;;;;4922160;29;20559;-71
2021/01/06 06:52:24;;;;;;;18.23;12.23;;;4.60;99.90;;;;;;4961376;28;20215;-71
2021/01/06 06:55:13;;;;;;;19.50;13.60;;;4.40;99.90;;;;;;4968604;28;20740;-75
2021/01/06 06:57:51;;;;;;;18.20;12.23;;;4.50;99.90;;;;;;4971560;28;20237;-73
2021/01/06 07:00:19;;;;;;;16.63;11.70;;;4.40;99.90;;;;;;4973285;28;20657;-73
2021/01/06 07:02:55;;;;;;;17.13;12.35;;;4.40;99.90;;;;;;4972177;28;20290;-73
2021/01/06 07:05:32;;;;;;;19.60;11.75;;;4.40;99.90;;;;;;4974096;28;20191;-73
2021/01/06 07:08:07;;;;;;;16.35;12.13;;;4.30;99.90;;;;;;4953675;29;20207;-72
2021/01/06 07:10:45;;;;;;;16.70;11.32;;;4.40;99.90;;;;;;4953862;28;20210;-73
2021/01/06 07:13:18;;;;;;;17.75;11.32;;;4.40;99.90;;;;;;4973855;28;20182;-73
2021/01/06 07:15:55;;;;;;;23.65;12.30;;;4.20;99.90;;;;;;4972489;28;20214;-73
2021/01/06 07:18:37;;;;;;;15.00;10.10;;;4.30;99.90;;;;;;4973716;28;20281;-73
2021/01/06 07:21:32;;;;;;;16.90;11.57;;;4.20;99.90;;;;;;4973620;28;20210;-73
2021/01/06 07:23:58;;;;;;;19.08;12.77;;;4.30;99.90;;;;;;4972225;28;20198;-73
2021/01/06 07:26:29;;;;;;;18.10;11.17;;;4.30;99.90;;;;;;4958594;28;20685;-73
2021/01/06 07:29:04;;;;;;;13.57;10.35;;;4.30;99.90;;;;;;4955283;28;21043;-73
2021/01/06 07:31:43;;;;;;;15.98;10.63;;;4.30;99.90;;;;;;4972223;28;20172;-73
2021/01/06 07:34:21;;;;;;;14.82;10.70;;;4.30;99.90;;;;;;4955964;28;20187;-73
2021/01/06 07:36:56;;;;;;;16.17;10.82;;;4.30;99.90;;;;;;4973736;28;20270;-73
2021/01/06 07:39:30;;;;;;;15.45;10.48;;;4.20;99.90;;;;;;4956750;28;20194;-73
2021/01/06 07:42:01;;;;;;;17.10;12.25;;;4.30;99.90;;;;;;4972252;28;20711;-73
2021/01/06 07:44:34;;;;;;;20.83;15.27;;;4.30;99.90;;;;;;4940564;28;20610;-76
2021/01/06 07:47:13;;;;;;;19.83;13.90;;;4.30;99.90;;;;;;4973616;28;20207;-73
2021/01/06 07:49:44;;;;;;;16.10;12.15;;;4.40;99.90;;;;;;4973144;28;20195;-73
2021/01/06 07:52:25;;;;;;;15.43;12.00;;;4.40;99.90;;;;;;4973508;28;20210;-73
2021/01/06 07:55:19;;;;;;;20.15;12.65;;;4.40;99.90;;;;;;4956218;28;20234;-73
2021/01/06 07:58:02;;;;;;;18.15;12.05;;;4.50;99.90;;;;;;4951382;28;20238;-73
2021/01/06 08:00:58;;;;;;;16.80;11.60;;;4.40;99.90;;;;;;4972480;28;20199;-73
2021/01/06 08:03:49;;;;;;;17.10;11.50;;;4.40;99.90;;;;;;4971507;28;20183;-73
2021/01/06 08:06:20;;;;;;;14.02;10.68;;;4.40;99.90;;;;;;4972232;28;20187;-73
2021/01/06 08:08:48;;;;;;;17.58;12.10;;;4.50;99.90;;;;;;4971689;28;20197;-73
2021/01/06 08:11:19;;;;;;;18.08;12.52;;;4.50;99.90;;;;;;4972059;28;20537;-76
2021/01/06 08:13:48;;;;;;;17.50;12.48;;;4.60;99.90;;;;;;4973376;28;20187;-73
2021/01/06 08:16:20;;;;;;;20.00;12.00;;;4.60;99.90;;;;;;4976303;28;20265;-73
2021/01/06 08:19:11;;;;;;;16.40;11.63;;;4.50;99.90;;;;;;4975863;28;20178;-73
2021/01/06 08:22:05;;;;;;;15.57;10.48;;;4.50;99.90;;;;;;4972297;28;20214;-77
2021/01/06 08:24:46;;;;;;;16.88;10.85;;;4.60;99.90;;;;;;4957465;29;20227;-77
2021/01/06 08:27:27;;;;;;;15.70;11.85;;;4.60;99.90;;;;;;4958374;28;20684;-77
2021/01/06 08:30:14;;;;;;;14.05;10.57;;;4.60;99.90;;;;;;4958003;29;20180;-77
2021/01/06 08:32:44;;;;;;;18.83;13.40;;;4.80;99.90;;;;;;4954971;28;20246;-76
2021/01/06 08:35:22;;;;;;;18.42;13.05;;;4.70;99.90;;;;;;4958346;28;20250;-77
2021/01/06 08:37:52;;;;;;;20.38;14.10;;;4.60;99.90;;;;;;4959174;28;20258;-77
2021/01/06 08:40:32;;;;;;;23.90;15.02;;;4.60;99.90;;;;;;4944506;28;20214;-76
2021/01/06 08:43:03;;;;;;;22.52;15.65;;;4.50;99.90;;;;;;4960458;28;20291;-77
2021/01/06 08:45:35;;;;;;;21.10;13.02;;;4.70;99.90;;;;;;4960789;28;20183;-77
2021/01/06 08:48:20;;;;;;;21.50;14.82;;;4.30;99.90;;;;;;4975544;28;20215;-77
2021/01/06 08:50:50;;;;;;;25.35;15.40;;;4.30;99.90;;;;;;4960316;28;20184;-76
2021/01/06 08:53:27;;;;;;;29.42;17.80;;;4.30;99.90;;;;;;4976207;28;20203;-77
2021/01/06 08:55:59;;;;;;;24.45;16.83;;;4.40;99.90;;;;;;4972556;28;20203;-76
2021/01/06 08:58:42;;;;;;;23.50;15.88;;;4.40;99.90;;;;;;4956840;28;20697;-77
2021/01/06 09:01:44;;;;;;;22.23;14.73;;;4.30;99.90;;;;;;4947123;28;20191;-77
2021/01/06 09:04:18;;;;;;;25.75;15.95;;;4.50;99.90;;;;;;4975886;28;20179;-77
2021/01/06 09:07:24;;;;;;;26.23;15.48;;;4.40;99.90;;;;;;4976337;28;20572;-76
2021/01/06 09:10:44;;;;;;;22.40;15.73;;;4.40;99.90;;;;;;4974887;28;20179;-76
2021/01/06 09:13:21;;;;;;;21.30;14.35;;;4.30;99.90;;;;;;4967472;28;20695;-77
2021/01/06 09:16:01;;;;;;;23.33;14.90;;;4.30;99.90;;;;;;4960627;28;20518;-77
2021/01/06 09:18:37;;;;;;;23.65;15.55;;;4.30;99.90;;;;;;4959515;28;20587;-77
2021/01/06 09:21:25;;;;;;;22.40;14.55;;;4.20;99.90;;;;;;4959312;28;20563;-77
2021/01/06 09:24:05;;;;;;;27.90;15.40;;;4.20;99.90;;;;;;4975214;28;20184;-77
2021/01/06 09:26:32;;;;;;;23.80;15.43;;;4.30;99.90;;;;;;4975268;28;20180;-79
2021/01/06 09:29:12;;;;;;;23.42;15.43;;;4.20;99.90;;;;;;4945248;28;20195;-78
2021/01/06 09:31:42;;;;;;;22.63;15.15;;;4.10;99.90;;;;;;4977627;28;20186;-78
2021/01/06 09:34:14;;;;;;;25.20;16.13;;;4.30;99.90;;;;;;4957988;28;20273;-78
2021/01/06 09:36:41;;;;;;;23.95;16.08;;;4.40;99.90;;;;;;4974307;28;20239;-77
2021/01/06 09:39:16;;;;;;;30.92;15.60;;;4.20;99.90;;;;;;4959386;28;20594;-77
2021/01/06 09:41:47;;;;;;;25.05;15.43;;;4.20;99.90;;;;;;4974787;28;20293;-77
2021/01/06 09:44:13;;;;;;;27.83;17.15;;;4.20;99.90;;;;;;4959043;28;20183;-77
2021/01/06 09:47:20;;;;;;;23.30;16.23;;;4.10;99.90;;;;;;4959431;28;20717;-77
2021/01/06 09:49:58;;;;;;;27.70;15.93;;;4.20;99.90;;;;;;4955641;29;20227;-78
2021/01/06 09:52:30;;;;;;;24.25;16.50;;;4.50;99.90;;;;;;4966209;28;20621;-78
2021/01/06 09:54:58;;;;;;;26.58;16.25;;;4.30;99.90;;;;;;4964890;28;20211;-77
2021/01/06 09:57:28;;;;;;;26.60;16.67;;;4.30;99.90;;;;;;4974578;28;20266;-77
2021/01/06 10:00:11;;;;;;;22.10;15.07;;;4.30;99.90;;;;;;4971347;28;20568;-77
2021/01/06 10:02:47;;;;;;;25.17;15.25;;;4.30;99.90;;;;;;4957673;28;20207;-77
2021/01/06 10:05:31;;;;;;;23.88;14.85;;;4.30;99.90;;;;;;4974020;28;20234;-77
2021/01/06 10:08:04;;;;;;;27.10;15.73;;;4.20;99.90;;;;;;4974393;28;20222;-78
2021/01/06 10:10:38;;;;;;;25.30;14.52;;;4.60;99.90;;;;;;4971182;28;20662;-77
2021/01/06 10:13:32;;;;;;;20.95;13.55;;;4.30;99.90;;;;;;4974133;28;20213;-77
2021/01/06 10:16:05;;;;;;;24.02;15.10;;;4.30;99.90;;;;;;4938716;29;20188;-77
2021/01/06 10:18:39;;;;;;;28.38;17.33;;;4.30;99.90;;;;;;4956638;28;20210;-77
2021/01/06 10:21:28;;;;;;;23.35;14.23;;;4.40;99.90;;;;;;4975434;28;20187;-78
2021/01/06 10:24:32;;;;;;;19.48;12.60;;;4.30;99.90;;;;;;4958925;28;20186;-79
2021/01/06 10:27:16;;;;;;;21.98;16.02;;;4.40;99.90;;;;;;4956233;28;20572;-79
2021/01/06 10:29:49;;;;;;;21.88;14.45;;;4.60;99.90;;;;;;4960359;28;20196;-77
2021/01/06 10:32:15;;;;;;;25.10;15.30;;;4.40;99.90;;;;;;4958532;28;20207;-77
2021/01/06 10:34:43;;;;;;;26.60;15.27;;;4.40;99.90;;;;;;4975214;28;20186;-77
2021/01/06 10:37:29;;;;;;;21.50;13.68;;;4.40;99.90;;;;;;4941782;28;20286;-77
2021/01/06 10:40:14;;;;;;;22.33;14.00;;;4.30;99.90;;;;;;4975591;28;20196;-77
2021/01/06 10:42:41;;;;;;;20.75;13.32;;;4.40;99.90;;;;;;4958066;28;20301;-78
2021/01/06 10:45:14;;;;;;;21.38;13.57;;;4.50;99.90;;;;;;4973879;28;20203;-77
2021/01/06 10:47:50;;;;;;;23.00;13.00;;;4.30;99.90;;;;;;4973778;28;20585;-77
2021/01/06 10:50:29;;;;;;;19.05;11.45;;;4.60;99.90;;;;;;4957938;28;20167;-77
2021/01/06 10:53:20;;;;;;;19.45;12.82;;;4.30;99.90;;;;;;4974194;28;20205;-77
2021/01/06 10:56:05;;;;;;;25.23;16.55;;;4.30;99.90;;;;;;4954423;28;20208;-77
2021/01/06 10:58:58;;;;;;;19.83;14.18;;;4.40;99.90;;;;;;5003630;23;20289;-81
2021/01/06 11:01:28;;;;;;;23.25;14.95;;;4.40;99.90;;;;;;4958309;28;20291;-81
2021/01/06 11:04:12;;;;;;;20.20;13.88;;;4.40;99.90;;;;;;4968751;28;20203;-80
2021/01/06 11:07:12;;;;;;;18.98;13.25;;;4.40;99.90;;;;;;4963837;28;20206;-80
2021/01/06 11:10:03;;;;;;;20.27;14.73;;;4.50;99.90;;;;;;4960789;28;20566;-81
2021/01/06 11:12:54;;;;;;;18.67;13.00;;;4.50;99.90;;;;;;4955789;29;20205;-80
2021/01/06 11:15:26;;;;;;;16.35;12.43;;;4.50;99.90;;;;;;4966697;28;20198;-80
2021/01/06 11:18:12;;;;;;;16.83;11.60;;;4.60;99.90;;;;;;4975666;28;20216;-80
2021/01/06 11:20:45;;;;;;;17.13;11.48;;;4.50;99.90;;;;;;4973295;28;20632;-78
2021/01/06 11:23:43;;;;;;;15.65;11.05;;;4.40;99.90;;;;;;4975353;28;20191;-78
2021/01/06 11:26:20;;;;;;;15.43;10.75;;;4.40;99.90;;;;;;4969480;28;20629;-79
2021/01/06 11:28:49;;;;;;;16.65;10.45;;;4.40;99.90;;;;;;4940170;28;20198;-79
2021/01/06 11:31:18;;;;;;;14.85;11.15;;;4.60;99.90;;;;;;4973944;28;20257;-79
2021/01/06 11:34:21;;;;;;;16.80;11.52;;;4.50;99.90;;;;;;4971905;28;20672;-81
2021/01/06 11:36:55;;;;;;;14.23;10.50;;;4.60;99.90;;;;;;4970010;28;20187;-79
2021/01/06 11:39:29;;;;;;;16.35;11.75;;;4.40;99.90;;;;;;4972313;28;20285;-81
2021/01/06 11:41:57;;;;;;;15.80;11.30;;;4.50;99.90;;;;;;4980623;28;20209;-80
2021/01/06 11:44:37;;;;;;;15.20;11.98;;;4.60;99.90;;;;;;4989885;28;20195;-81
2021/01/06 11:47:40;;;;;;;16.95;11.45;;;4.90;99.90;;;;;;4973989;28;20190;-80
2021/01/06 11:50:32;;;;;;;16.45;11.48;;;4.80;99.90;;;;;;4967337;28;20190;-81
2021/01/06 11:53:33;;;;;;;17.20;11.35;;;4.90;99.90;;;;;;4973939;28;20187;-82
2021/01/06 11:56:13;;;;;;;17.73;12.70;;;4.80;99.90;;;;;;4975956;28;20284;-81
2021/01/06 11:59:10;;;;;;;16.92;11.68;;;4.70;99.90;;;;;;4973675;28;20227;-80
2021/01/06 12:01:57;;;;;;;17.40;12.43;;;4.60;99.90;;;;;;4978377;28;20652;-81
2021/01/06 12:04:30;;;;;;;18.23;11.75;;;4.60;99.90;;;;;;4977083;28;20203;-81
2021/01/06 12:06:56;;;;;;;21.15;13.63;;;4.50;99.90;;;;;;4973592;28;20209;-80
2021/01/06 12:10:03;;;;;;;18.55;12.23;;;4.40;99.90;;;;;;4972140;28;20217;-80
2021/01/06 12:12:32;;;;;;;16.35;11.50;;;4.60;99.90;;;;;;4978783;28;20201;-81
2021/01/06 12:15:39;;;;;;;20.25;12.13;;;4.80;99.90;;;;;;4972212;28;20198;-81
2021/01/06 12:18:20;;;;;;;18.38;13.00;;;4.70;99.90;;;;;;4925317;28;20206;-81
2021/01/06 12:20:47;;;;;;;19.27;11.80;;;4.80;99.90;;;;;;4950350;28;20677;-80
2021/01/06 12:23:38;;;;;;;15.30;11.55;;;4.60;99.90;;;;;;4962931;28;20312;-81
2021/01/06 12:26:05;;;;;;;18.00;10.90;;;4.60;99.90;;;;;;4973181;28;20210;-82
2021/01/06 12:28:42;;;;;;;15.50;9.70;;;4.50;99.90;;;;;;4970015;28;20199;-81
2021/01/06 12:31:40;;;;;;;19.42;12.85;;;4.40;99.90;;;;;;4973423;28;20266;-81
2021/01/06 12:34:15;;;;;;;17.60;10.88;;;4.40;99.90;;;;;;4970172;28;20213;-81
2021/01/06 12:37:10;;;;;;;18.27;11.30;;;4.50;99.90;;;;;;4973688;28;20183;-80
2021/01/06 12:39:41;;;;;;;16.83;11.45;;;4.50;99.90;;;;;;4975267;28;20193;-80
2021/01/06 12:42:13;;;;;;;18.02;11.82;;;4.40;99.90;;;;;;4951202;28;20211;-80
2021/01/06 12:44:45;;;;;;;15.52;11.30;;;4.10;99.90;;;;;;4965949;28;20282;-81
2021/01/06 12:47:58;;;;;;;15.32;11.43;;;4.60;99.90;;;;;;4983533;28;20198;-81
2021/01/06 12:50:56;;;;;;;16.95;11.32;;;4.50;99.90;;;;;;4955295;28;20204;-80
2021/01/06 12:53:48;;;;;;;14.35;10.30;;;4.40;99.90;;;;;;4957186;28;20187;-81
2021/01/06 12:56:32;;;;;;;18.88;10.15;;;4.60;99.90;;;;;;4969030;28;20356;-80
2021/01/06 12:59:11;;;;;;;13.93;10.75;;;4.30;99.90;;;;;;4972028;28;20230;-81
2021/01/06 13:01:57;;;;;;;13.18;10.75;;;4.20;99.90;;;;;;4975664;28;20207;-81
2021/01/06 13:04:31;;;;;;;18.83;11.43;;;4.40;99.90;;;;;;4962757;28;20184;-79
2021/01/06 13:07:11;;;;;;;17.52;11.45;;;4.40;99.90;;;;;;4977211;28;20260;-79
2021/01/06 13:09:41;;;;;;;15.40;11.15;;;4.30;99.90;;;;;;4976335;28;20270;-79
2021/01/06 13:12:10;;;;;;;13.95;10.52;;;4.30;99.90;;;;;;4976803;28;20195;-79
2021/01/06 13:14:41;;;;;;;15.80;11.23;;;4.20;99.90;;;;;;4973807;28;20294;-79
2021/01/06 13:17:26;;;;;;;13.80;10.25;;;4.20;99.90;;;;;;4975751;28;20210;-80
2021/01/06 13:20:11;;;;;;;16.23;10.55;;;4.30;99.90;;;;;;4970304;28;20282;-79
2021/01/06 13:22:43;;;;;;;15.15;11.05;;;4.20;99.90;;;;;;4976197;28;20203;-79
2021/01/06 13:25:20;;;;;;;14.18;10.73;;;4.30;99.90;;;;;;4976512;28;20535;-80
2021/01/06 13:27:52;;;;;;;14.23;10.68;;;4.20;99.90;;;;;;4995681;28;20194;-79
2021/01/06 13:30:30;;;;;;;15.73;10.50;;;4.30;99.90;;;;;;4967342;28;20187;-81